createdAt,value
2018-08-10T00:01:00.554Z,100325.85
2018-08-10T00:03:30.171Z,100321.81
2018-08-10T00:05:59.820Z,100324.84
2018-08-10T00:08:29.498Z,100323.59
2018-08-10T00:10:59.024Z,100321.46
2018-08-10T00:13:28.575Z,100323.30
2018-08-10T00:15:58.184Z,100327.75
2018-08-10T00:18:27.829Z,100326.01
2018-08-10T00:20:57.439Z,100328.77
2018-08-10T00:23:27.026Z,100333.84
2018-08-10T00:25:56.551Z,100329.92
2018-08-10T00:28:26.187Z,100333.03
2018-08-10T00:30:55.808Z,100341.46
2018-08-10T00:33:25.357Z,100341.42
2018-08-10T00:35:54.923Z,100340.30
2018-08-10T00:38:24.520Z,100346.23
2018-08-10T00:40:54.038Z,100337.31
2018-08-10T00:43:23.628Z,100339.78
2018-08-10T00:45:53.201Z,100337.23
2018-08-10T00:48:22.815Z,100331.78
2018-08-10T00:50:52.371Z,100330.16
2018-08-10T00:53:21.972Z,100322.61
2018-08-10T00:55:52.205Z,100321.19
2018-08-10T00:58:21.744Z,100322.22
2018-08-10T01:00:51.362Z,100325.61
2018-08-10T01:03:20.859Z,100329.41
2018-08-10T01:05:50.478Z,100327.59
2018-08-10T01:08:20.027Z,100331.55
2018-08-10T01:10:49.670Z,100332.03
2018-08-10T01:13:19.333Z,100331.25
2018-08-10T01:15:48.848Z,100333.14
2018-08-10T01:18:18.499Z,100332.17
2018-08-10T01:20:48.187Z,100339.16
2018-08-10T01:23:17.711Z,100335.25
2018-08-10T01:25:47.287Z,100336.80
2018-08-10T01:28:16.882Z,100336.75
2018-08-10T01:30:46.523Z,100335.19
2018-08-10T01:33:16.043Z,100330.32
2018-08-10T01:35:45.583Z,100327.72
2018-08-10T01:38:15.184Z,100326.61
2018-08-10T01:40:44.805Z,100325.06
2018-08-10T01:43:14.339Z,100333.42
2018-08-10T01:45:43.963Z,100330.66
2018-08-10T01:48:13.508Z,100335.81
2018-08-10T01:50:43.095Z,100241.98
2018-08-10T01:53:12.707Z,100338.25
2018-08-10T01:55:42.224Z,100339.30
2018-08-10T01:58:11.826Z,100339.12
2018-08-10T02:00:41.377Z,100343.83
2018-08-10T02:03:10.956Z,100343.73
2018-08-10T02:05:40.548Z,100338.53
2018-08-10T02:08:10.091Z,100341.98
2018-08-10T02:10:39.638Z,100348.22
2018-08-10T02:13:09.253Z,100346.82
2018-08-10T02:15:38.869Z,100344.64
2018-08-10T02:18:08.446Z,100346.82
2018-08-10T02:20:38.011Z,100355.19
2018-08-10T02:23:07.575Z,100357.50
2018-08-10T02:25:37.193Z,100354.14
2018-08-10T02:28:06.827Z,100350.97
2018-08-10T02:30:36.367Z,100349.09
2018-08-10T02:33:05.930Z,100353.23
2018-08-10T02:35:35.570Z,100358.73
2018-08-10T02:38:05.197Z,100354.44
2018-08-10T02:40:34.700Z,100358.56
2018-08-10T02:43:04.324Z,100357.42
2018-08-10T02:45:33.957Z,100353.62
2018-08-10T02:48:03.502Z,100352.94
2018-08-10T02:50:33.029Z,100352.64
2018-08-10T02:53:02.720Z,100357.30
2018-08-10T02:55:32.295Z,100358.45
2018-08-10T02:58:01.836Z,100351.89
2018-08-10T03:00:31.372Z,100353.28
2018-08-10T03:03:00.910Z,100357.65
2018-08-10T03:05:30.436Z,100356.09
2018-08-10T03:07:59.979Z,100349.75
2018-08-10T03:10:29.516Z,100350.97
2018-08-10T03:12:59.279Z,100351.66
2018-08-10T03:15:28.888Z,100353.58
2018-08-10T03:17:58.487Z,100346.59
2018-08-10T03:20:28.071Z,100354.59
2018-08-10T03:22:57.655Z,100359.95
2018-08-10T03:25:27.247Z,100353.97
2018-08-10T03:27:56.871Z,100370.48
2018-08-10T03:30:26.513Z,100363.91
2018-08-10T03:32:56.105Z,100372.73
2018-08-10T03:35:25.721Z,100374.28
2018-08-10T03:37:55.344Z,100368.83
2018-08-10T03:40:24.907Z,100376.19
2018-08-10T03:42:54.528Z,100376.42
2018-08-10T03:45:24.097Z,100379.81
2018-08-10T03:47:53.673Z,100378.03
2018-08-10T03:50:23.363Z,100378.28
2018-08-10T03:52:52.971Z,100375.73
2018-08-10T03:55:22.487Z,100379.78
2018-08-10T03:57:52.151Z,100379.02
2018-08-10T04:00:21.699Z,100379.53
2018-08-10T04:02:51.375Z,100371.30
2018-08-10T04:05:20.968Z,100383.75
2018-08-10T04:07:50.550Z,100379.53
2018-08-10T04:10:20.136Z,100383.16
2018-08-10T04:12:49.735Z,100390.48
2018-08-10T04:15:19.282Z,100393.17
2018-08-10T04:17:48.831Z,100394.28
2018-08-10T04:20:18.463Z,100393.58
2018-08-10T04:22:47.991Z,100394.08
2018-08-10T04:25:17.551Z,100397.92
2018-08-10T04:27:47.063Z,100394.23
2018-08-10T04:30:16.751Z,100398.33
2018-08-10T04:32:46.321Z,100401.81
2018-08-10T04:35:16.048Z,100405.97
2018-08-10T04:37:45.570Z,100395.03
2018-08-10T04:40:15.263Z,100395.52
2018-08-10T04:42:44.901Z,100403.30
2018-08-10T04:45:14.441Z,100409.20
2018-08-10T04:47:47.858Z,100407.94
2018-08-10T04:50:18.221Z,100412.67
2018-08-10T04:52:47.773Z,100419.22
2018-08-10T04:55:17.356Z,100418.23
2018-08-10T04:57:47.056Z,100410.90
2018-08-10T05:00:16.700Z,100418.44
2018-08-10T05:02:46.327Z,100418.65
2018-08-10T05:05:15.950Z,100422.00
2018-08-10T05:07:45.555Z,100423.23
2018-08-10T05:10:15.088Z,100421.95
2018-08-10T05:12:44.741Z,100432.09
2018-08-10T05:15:14.305Z,100424.83
2018-08-10T05:17:43.970Z,100429.72
2018-08-10T05:20:13.575Z,100432.84
2018-08-10T05:22:43.148Z,100427.11
2018-08-10T05:25:12.648Z,100431.06
2018-08-10T05:27:42.235Z,100429.26
2018-08-10T05:30:12.279Z,100428.92
2018-08-10T05:32:42.030Z,100428.41
2018-08-10T05:35:11.900Z,100428.95
2018-08-10T05:37:41.521Z,100346.97
2018-08-10T05:40:11.480Z,100433.16
2018-08-10T05:42:41.122Z,100431.23
2018-08-10T05:45:10.743Z,100428.68
2018-08-10T05:47:40.325Z,100434.39
2018-08-10T05:50:10.035Z,100432.86
2018-08-10T05:52:39.636Z,100430.88
2018-08-10T05:55:09.357Z,100432.05
2018-08-10T05:57:38.973Z,100433.99
2018-08-10T06:00:09.243Z,100442.86
2018-08-10T06:02:38.906Z,100441.21
2018-08-10T06:05:08.557Z,100444.41
2018-08-10T06:07:38.243Z,100449.59
2018-08-10T06:10:09.229Z,100443.08
2018-08-10T06:12:38.956Z,100443.59
2018-08-10T06:15:09.807Z,100434.63
2018-08-10T06:17:39.349Z,100437.16
2018-08-10T06:20:10.052Z,100440.33
2018-08-10T06:22:39.703Z,100435.66
2018-08-10T06:25:09.619Z,100443.24
2018-08-10T06:27:39.140Z,100427.80
2018-08-10T06:30:10.926Z,100440.16
2018-08-10T06:32:40.596Z,100441.58
2018-08-10T06:35:10.413Z,100433.13
2018-08-10T06:38:10.389Z,100425.86
2018-08-10T06:40:40.025Z,100430.53
2018-08-10T06:43:09.660Z,100436.67
2018-08-10T06:45:39.189Z,100438.44
2018-08-10T06:48:08.796Z,100444.41
2018-08-10T06:50:38.425Z,100439.66
2018-08-10T06:53:08.156Z,100453.61
2018-08-10T06:55:37.847Z,100440.70
2018-08-10T06:58:07.441Z,100458.23
2018-08-10T07:00:37.123Z,100456.34
2018-08-10T07:03:06.907Z,100454.65
2018-08-10T07:05:36.464Z,100457.05
2018-08-10T07:08:06.080Z,100454.02
2018-08-10T07:10:35.814Z,100454.59
2018-08-10T07:13:05.452Z,100455.41
2018-08-10T07:15:35.176Z,100452.84
2018-08-10T07:18:05.643Z,100451.53
2018-08-10T07:20:35.227Z,100448.98
2018-08-10T07:23:04.947Z,100458.06
2018-08-10T07:25:35.066Z,100449.32
2018-08-10T07:28:04.664Z,100449.88
2018-08-10T07:30:34.231Z,100451.72
2018-08-10T07:33:03.820Z,100448.27
2018-08-10T07:35:33.364Z,100452.63
2018-08-10T07:38:02.979Z,100451.82
2018-08-10T07:40:32.592Z,100447.00
2018-08-10T07:43:02.351Z,100452.12
2018-08-10T07:45:31.859Z,100456.96
2018-08-10T07:48:01.468Z,100454.98
2018-08-10T07:50:31.023Z,100455.65
2018-08-10T07:53:00.636Z,100457.25
2018-08-10T07:55:30.203Z,100447.98
2018-08-10T07:57:59.872Z,100452.22
2018-08-10T08:00:29.517Z,100448.52
2018-08-10T08:02:59.208Z,100453.68
2018-08-10T08:05:28.765Z,100452.56
2018-08-10T08:07:58.417Z,100449.20
2018-08-10T08:10:28.024Z,100456.81
2018-08-10T08:12:57.705Z,100444.28
2018-08-10T08:15:27.225Z,100455.06
2018-08-10T08:17:56.914Z,100454.33
2018-08-10T08:23:03.283Z,100454.06
2018-08-10T08:25:34.866Z,100449.76
2018-08-10T08:28:04.846Z,100451.05
2018-08-10T08:30:34.414Z,100451.14
2018-08-10T08:33:04.572Z,100315.05
2018-08-10T08:35:34.175Z,100455.25
2018-08-10T08:40:19.193Z,100457.07
2018-08-10T08:42:49.667Z,100469.03
2018-08-10T08:45:38.252Z,100454.88
2018-08-10T08:48:08.073Z,100459.95
2018-08-10T08:50:39.865Z,100462.58
2018-08-10T08:53:10.001Z,100463.48
2018-08-10T08:55:41.908Z,100466.08
2018-08-10T08:58:11.511Z,100470.63
2018-08-10T09:00:41.223Z,100456.73
2018-08-10T09:03:21.674Z,100457.05
2018-08-10T09:05:51.402Z,100456.16
2018-08-10T09:08:21.516Z,100457.95
2018-08-10T09:10:51.511Z,100458.86
2018-08-10T09:13:21.182Z,100454.94
2018-08-10T09:15:50.848Z,100454.25
2018-08-10T09:18:20.426Z,100456.09
2018-08-10T09:20:50.075Z,100449.84
2018-08-10T09:23:19.687Z,100453.58
2018-08-10T09:25:49.303Z,100447.25
2018-08-10T09:28:18.898Z,100446.98
2018-08-10T09:30:48.436Z,100452.59
2018-08-10T09:33:18.088Z,100450.91
2018-08-10T09:35:47.652Z,100446.38
2018-08-10T09:38:17.176Z,100450.53
2018-08-10T09:40:46.881Z,100447.52
2018-08-10T09:43:16.431Z,100443.55
2018-08-10T09:45:46.051Z,100443.05
2018-08-10T09:48:15.669Z,100430.27
2018-08-10T09:50:45.240Z,100441.13
2018-08-10T09:53:14.808Z,100430.59
2018-08-10T09:55:44.437Z,100425.50
2018-08-10T09:58:18.611Z,100424.85
2018-08-10T10:00:53.373Z,100427.86
2018-08-10T10:03:25.282Z,100421.50
2018-08-10T10:05:56.284Z,100423.42
2018-08-10T10:08:26.294Z,100426.97
2018-08-10T10:10:56.965Z,100420.36
2018-08-10T10:13:26.636Z,100421.27
2018-08-10T10:15:56.243Z,100421.12
2018-08-10T10:18:25.881Z,100425.77
2018-08-10T10:20:55.421Z,100424.00
2018-08-10T10:23:25.064Z,100421.89
2018-08-10T10:25:54.721Z,100419.58
2018-08-10T10:28:24.276Z,100419.81
2018-08-10T10:30:54.147Z,100415.72
2018-08-10T10:33:23.749Z,100413.87
2018-08-10T10:35:53.378Z,100412.71
2018-08-10T10:38:22.956Z,100415.53
2018-08-10T10:40:52.594Z,100417.08
2018-08-10T10:43:22.116Z,100417.73
2018-08-10T10:45:51.724Z,100408.53
2018-08-10T10:48:21.680Z,100422.60
2018-08-10T10:50:51.243Z,100412.02
2018-08-10T10:53:21.201Z,100408.44
2018-08-10T10:55:50.817Z,100404.06
2018-08-10T10:58:20.383Z,100403.83
2018-08-10T11:00:50.400Z,100401.48
2018-08-10T11:03:19.987Z,100401.09
2018-08-10T11:05:49.589Z,100401.00
2018-08-10T11:08:19.234Z,100401.02
2018-08-10T11:10:48.755Z,100407.86
2018-08-10T11:13:18.386Z,100398.58
2018-08-10T11:15:47.958Z,100396.67
2018-08-10T11:18:17.471Z,100398.73
2018-08-10T11:20:47.045Z,100398.17
2018-08-10T11:23:16.595Z,100393.73
2018-08-10T11:25:46.406Z,100390.56
2018-08-10T11:28:15.962Z,100395.04
2018-08-10T11:30:45.484Z,100389.23
2018-08-10T11:33:15.310Z,100393.44
2018-08-10T11:35:44.994Z,100389.14
2018-08-10T11:38:14.513Z,100396.91
2018-08-10T11:40:44.229Z,100397.48
2018-08-10T11:43:13.844Z,100394.44
2018-08-10T11:45:43.508Z,100402.83
2018-08-10T11:48:13.109Z,100402.62
2018-08-10T11:50:42.787Z,100405.47
2018-08-10T11:53:12.324Z,100401.59
2018-08-10T11:55:41.935Z,100403.78
2018-08-10T11:58:11.634Z,100389.27
2018-08-10T12:00:41.344Z,100381.88
2018-08-10T12:03:10.871Z,100381.78
2018-08-10T12:05:40.949Z,100372.41
2018-08-10T12:08:10.632Z,100370.75
2018-08-10T12:10:40.214Z,100364.61
2018-08-10T12:13:09.797Z,100358.20
2018-08-10T12:15:39.429Z,100359.20
2018-08-10T12:18:08.967Z,100357.00
2018-08-10T12:20:38.554Z,100349.83
2018-08-10T12:23:08.186Z,100349.62
2018-08-10T12:25:37.786Z,100344.90
2018-08-10T12:28:07.510Z,100338.59
2018-08-10T12:30:37.061Z,100340.58
2018-08-10T12:33:07.187Z,100345.30
2018-08-10T12:35:36.750Z,100333.33
2018-08-10T12:38:06.487Z,100339.86
2018-08-10T12:40:36.071Z,100337.11
2018-08-10T12:43:05.678Z,100338.31
2018-08-10T12:45:35.307Z,100335.11
2018-08-10T12:48:05.091Z,100327.00
2018-08-10T12:50:34.779Z,100324.95
2018-08-10T12:53:04.472Z,100320.60
2018-08-10T12:55:34.253Z,100312.77
2018-08-10T12:58:03.839Z,100309.07
2018-08-10T13:00:33.446Z,100314.69
2018-08-10T13:03:03.101Z,100313.08
2018-08-10T13:05:32.724Z,100314.16
2018-08-10T13:08:02.407Z,100314.55
2018-08-10T13:10:32.178Z,100304.88
2018-08-10T13:13:02.887Z,100302.30
2018-08-10T13:15:32.495Z,100301.62
2018-08-10T13:18:02.436Z,100287.91
2018-08-10T13:20:31.992Z,100289.31
2018-08-10T13:23:01.628Z,100298.08
2018-08-10T13:25:31.308Z,100290.11
2018-08-10T13:28:00.897Z,100290.32
2018-08-10T13:30:30.620Z,100278.66
2018-08-10T13:33:00.231Z,100281.47
2018-08-10T13:35:29.961Z,100276.22
2018-08-10T13:37:59.635Z,100271.70
2018-08-10T13:40:29.224Z,100267.14
2018-08-10T13:42:59.285Z,100272.16
2018-08-10T13:45:29.144Z,100275.39
2018-08-10T13:47:58.964Z,100269.28
2018-08-10T13:50:28.663Z,100264.91
2018-08-10T13:52:58.239Z,100266.38
2018-08-10T13:55:27.830Z,100267.59
2018-08-10T13:57:57.469Z,100254.09
2018-08-10T14:00:27.160Z,100261.98
2018-08-10T14:02:56.803Z,100261.09
2018-08-10T14:05:26.531Z,100258.91
2018-08-10T14:07:56.520Z,100259.25
2018-08-10T14:10:26.064Z,100254.67
2018-08-10T14:12:55.691Z,100253.75
2018-08-10T14:15:25.376Z,100260.23
2018-08-10T14:17:55.132Z,100250.59
2018-08-10T14:20:24.744Z,100259.06
2018-08-10T14:22:54.419Z,100253.61
2018-08-10T14:25:25.039Z,100250.20
2018-08-10T14:27:55.081Z,100257.48
2018-08-10T14:30:24.712Z,100249.41
2018-08-10T14:32:54.240Z,100251.38
2018-08-10T14:35:23.972Z,100252.67
2018-08-10T14:37:53.692Z,100252.41
2018-08-10T14:40:23.369Z,100252.34
2018-08-10T14:42:52.973Z,100253.98
2018-08-10T14:45:22.561Z,100251.88
2018-08-10T14:47:52.188Z,100255.13
2018-08-10T14:50:21.733Z,100261.34
2018-08-10T14:52:51.325Z,100262.42
2018-08-10T14:55:20.935Z,100259.61
2018-08-10T14:57:50.603Z,100260.66
2018-08-10T15:00:21.390Z,100261.61
2018-08-10T15:02:51.088Z,100259.58
2018-08-10T15:05:20.623Z,100257.36
2018-08-10T15:07:50.162Z,100265.70
2018-08-10T15:10:19.832Z,100254.56
2018-08-10T15:12:49.592Z,100255.08
2018-08-10T15:15:19.890Z,100247.16
2018-08-10T15:17:49.719Z,100250.90
2018-08-10T15:20:20.545Z,100249.44
2018-08-10T15:22:50.282Z,100243.02
2018-08-10T15:25:19.906Z,100245.73
2018-08-10T15:27:49.483Z,100241.59
2018-08-10T15:30:19.723Z,100246.30
2018-08-10T15:32:49.297Z,100237.25
2018-08-10T15:35:18.949Z,100239.98
2018-08-10T15:37:48.575Z,100245.12
2018-08-10T15:40:19.531Z,100242.05
2018-08-10T15:42:49.344Z,100241.09
2018-08-10T15:45:19.314Z,100240.73
2018-08-10T15:47:48.952Z,100242.13
2018-08-10T15:50:18.597Z,100242.39
2018-08-10T15:52:48.243Z,100244.09
2018-08-10T15:55:17.900Z,100249.25
2018-08-10T15:57:47.444Z,100251.00
2018-08-10T16:00:22.253Z,100247.61
2018-08-10T16:02:51.947Z,100253.34
2018-08-10T16:05:21.579Z,100249.19
2018-08-10T16:07:51.138Z,100240.86
2018-08-10T16:10:20.632Z,100241.95
2018-08-10T16:12:50.286Z,100241.86
2018-08-10T16:15:20.048Z,100242.80
2018-08-10T16:17:49.764Z,100252.64
2018-08-10T16:20:20.995Z,100240.95
2018-08-10T16:22:51.039Z,100244.88
2018-08-10T16:25:20.723Z,100248.77
2018-08-10T16:27:50.451Z,100249.12
2018-08-10T16:30:20.031Z,100250.77
2018-08-10T16:32:49.675Z,100255.94
2018-08-10T16:35:19.235Z,100253.56
2018-08-10T16:37:48.775Z,100252.86
2018-08-10T16:40:19.038Z,100245.17
2018-08-10T16:42:48.711Z,100251.14
2018-08-10T16:45:18.395Z,100249.88
2018-08-10T16:47:47.968Z,100242.89
2018-08-10T16:50:18.676Z,100245.23
2018-08-10T16:52:48.344Z,100249.48
2018-08-10T16:55:20.009Z,100249.27
2018-08-10T16:57:50.176Z,100251.03
2018-08-10T17:00:21.172Z,100250.48
2018-08-10T17:02:50.809Z,100261.20
2018-08-10T17:05:20.497Z,100265.54
2018-08-10T17:07:50.067Z,100257.77
2018-08-10T17:10:19.619Z,100267.18
2018-08-10T17:12:49.175Z,100264.99
2018-08-10T17:15:19.795Z,100262.23
2018-08-10T17:17:49.515Z,100264.68
2018-08-10T17:20:19.476Z,100274.11
2018-08-10T17:22:49.103Z,100272.00
2018-08-10T17:25:20.117Z,100272.94
2018-08-10T17:27:49.820Z,100273.65
2018-08-10T17:30:20.242Z,100271.05
2018-08-10T17:32:49.891Z,100273.15
2018-08-10T17:35:19.510Z,100276.61
2018-08-10T17:37:49.024Z,100280.69
2018-08-10T17:40:18.619Z,100279.28
2018-08-10T17:42:48.203Z,100285.19
2018-08-10T17:45:18.346Z,100290.65
2018-08-10T17:47:47.940Z,100290.92
2018-08-10T17:50:19.570Z,100288.22
2018-08-10T17:52:50.313Z,100296.11
2018-08-10T17:55:20.413Z,100299.09
2018-08-10T17:57:50.123Z,100305.96
2018-08-10T18:00:24.791Z,100305.68
2018-08-10T18:02:54.478Z,100311.95
2018-08-10T18:05:24.138Z,100309.61
2018-08-10T18:07:53.761Z,100319.33
2018-08-10T18:10:23.370Z,100314.78
2018-08-10T18:12:53.028Z,100321.46
2018-08-10T18:15:22.611Z,100328.64
2018-08-10T18:17:52.276Z,100328.78
2018-08-10T18:20:22.891Z,100335.59
2018-08-10T18:22:53.019Z,100340.39
2018-08-10T18:25:23.139Z,100346.07
2018-08-10T18:27:52.736Z,100350.02
2018-08-10T18:30:25.436Z,100349.28
2018-08-10T18:32:55.183Z,100354.26
2018-08-10T18:35:24.796Z,100356.81
2018-08-10T18:37:54.394Z,100361.71
2018-08-10T18:40:24.096Z,100259.75
2018-08-10T18:42:53.719Z,100376.14
2018-08-10T18:45:23.356Z,100378.31
2018-08-10T18:47:52.994Z,100383.58
2018-08-10T18:50:22.717Z,100380.10
2018-08-10T18:52:52.272Z,100379.70
2018-08-10T18:55:23.227Z,100386.08
2018-08-10T18:57:53.174Z,100386.81
2018-08-10T19:00:25.386Z,100383.95
2018-08-10T19:02:55.618Z,100387.45
2018-08-10T19:05:25.362Z,100395.39
2018-08-10T19:07:55.079Z,100397.09
2018-08-10T19:10:26.898Z,100400.27
2018-08-10T19:12:56.423Z,100400.34
2018-08-10T19:15:25.974Z,100396.55
2018-08-10T19:17:55.539Z,100401.34
2018-08-10T19:20:25.200Z,100404.62
2018-08-10T19:22:54.829Z,100404.28
2018-08-10T19:25:24.367Z,100407.86
2018-08-10T19:27:53.939Z,100400.98
2018-08-10T19:30:24.528Z,100410.42
2018-08-10T19:32:54.107Z,100415.77
2018-08-10T19:35:23.682Z,100419.94
2018-08-10T19:37:53.300Z,100425.84
2018-08-10T19:40:22.923Z,100433.04
2018-08-10T19:42:52.551Z,100421.83
2018-08-10T19:45:22.164Z,100423.29
2018-08-10T19:47:51.833Z,100426.95
2018-08-10T19:50:24.450Z,100418.64
2018-08-10T19:52:54.488Z,100421.14
2018-08-10T19:55:24.098Z,100412.89
2018-08-10T19:57:53.671Z,100420.25
2018-08-10T20:00:23.253Z,100421.21
2018-08-10T20:02:52.820Z,100425.70
2018-08-10T20:05:22.415Z,100417.15
2018-08-10T20:07:52.019Z,100422.30
2018-08-10T20:10:21.532Z,100425.83
2018-08-10T20:12:51.223Z,100419.73
2018-08-10T20:15:20.887Z,100419.34
2018-08-10T20:17:50.399Z,100424.75
2018-08-10T20:20:19.984Z,100426.41
2018-08-10T20:22:50.021Z,100424.35
2018-08-10T20:25:19.650Z,100426.69
2018-08-10T20:27:49.151Z,100426.41
2018-08-10T20:30:19.354Z,100427.16
2018-08-10T20:32:49.191Z,100426.45
2018-08-10T20:35:20.145Z,100425.91
2018-08-10T20:37:50.048Z,100316.94
2018-08-10T20:40:20.623Z,100431.41
2018-08-10T20:42:50.495Z,100437.58
2018-08-10T20:45:20.539Z,100432.20
2018-08-10T20:47:50.282Z,100435.91
2018-08-10T20:50:21.927Z,100438.38
2018-08-10T20:52:51.714Z,100440.87
2018-08-10T20:55:21.539Z,100439.55
2018-08-10T20:57:51.292Z,100438.59
2018-08-10T21:00:20.914Z,100444.34
2018-08-10T21:02:50.671Z,100445.51
2018-08-10T21:05:20.186Z,100443.67
2018-08-10T21:07:49.839Z,100444.78
2018-08-10T21:10:19.374Z,100448.88
2018-08-10T21:12:48.947Z,100455.62
2018-08-10T21:15:18.579Z,100463.28
2018-08-10T21:17:48.111Z,100459.16
2018-08-10T21:20:18.439Z,100457.54
2018-08-10T21:22:48.039Z,100450.46
2018-08-10T21:25:17.663Z,100454.97
2018-08-10T21:27:47.273Z,100455.17
2018-08-10T21:30:19.667Z,100459.95
2018-08-10T21:32:49.905Z,100462.20
2018-08-10T21:35:19.518Z,100457.87
2018-08-10T21:37:49.194Z,100459.56
2018-08-10T21:40:18.864Z,100459.17
2018-08-10T21:42:48.482Z,100460.21
2018-08-10T21:45:18.015Z,100465.80
2018-08-10T21:47:47.683Z,100464.71
2018-08-10T21:50:17.219Z,100462.52
2018-08-10T21:52:46.807Z,100343.02
2018-08-10T21:55:16.343Z,100457.28
2018-08-10T21:57:45.891Z,100455.43
2018-08-10T22:00:20.723Z,100459.11
2018-08-10T22:02:50.392Z,100455.59
2018-08-10T22:05:19.924Z,100328.74
2018-08-10T22:07:49.505Z,100449.41
2018-08-10T22:10:19.095Z,100455.21
2018-08-10T22:12:49.282Z,100457.92
2018-08-10T22:15:23.967Z,100451.88
2018-08-10T22:17:58.447Z,100447.85
2018-08-10T22:20:28.064Z,100454.77
2018-08-10T22:22:57.649Z,100453.66
2018-08-10T22:25:27.244Z,100459.23
2018-08-10T22:27:56.824Z,100456.36
2018-08-10T22:30:26.402Z,100454.25
2018-08-10T22:32:55.972Z,100453.72
2018-08-10T22:35:25.535Z,100457.86
2018-08-10T22:37:55.079Z,100458.03
2018-08-10T22:40:24.607Z,100457.61
2018-08-10T22:42:54.097Z,100462.19
2018-08-10T22:45:23.690Z,100455.09
2018-08-10T22:47:53.279Z,100456.54
2018-08-10T22:50:22.911Z,100454.09
2018-08-10T22:52:52.471Z,100457.63
2018-08-10T22:55:22.084Z,100458.91
2018-08-10T22:57:51.648Z,100462.22
2018-08-10T23:00:21.227Z,100453.16
2018-08-10T23:02:50.879Z,100452.30
2018-08-10T23:05:20.479Z,100456.20
2018-08-10T23:07:50.121Z,100451.50
2018-08-10T23:10:19.775Z,100451.30
2018-08-10T23:12:49.372Z,100451.64
2018-08-10T23:15:18.968Z,100450.59
2018-08-10T23:17:48.578Z,100440.98
2018-08-10T23:20:18.237Z,100440.92
2018-08-10T23:22:47.761Z,100440.34
2018-08-10T23:25:17.351Z,100431.38
2018-08-10T23:27:46.900Z,100434.48
2018-08-10T23:30:17.091Z,100434.03
2018-08-10T23:32:46.873Z,100429.00
2018-08-10T23:35:16.543Z,100427.41
2018-08-10T23:37:46.151Z,100425.02
2018-08-10T23:40:16.618Z,100425.12
2018-08-10T23:42:46.367Z,100424.34
2018-08-10T23:45:16.324Z,100425.26
2018-08-10T23:47:45.945Z,100423.07
2018-08-10T23:50:16.547Z,100421.97
2018-08-10T23:52:46.534Z,100424.41
2018-08-10T23:55:17.857Z,100423.77
2018-08-10T23:57:47.616Z,100424.31
